Time;durP1;ratioP1;P1;durP2;ratioP2;P2;SDS_P1;SDS_P2;PMS_P1;PMS_P2;Temp;Humidity;BMP_temperature;BMP_pressure;BME280_temperature;BME280_humidity;BME280_pressure;Samples;Min_cycle;Max_cycle;Signal;HPM_P1;HPM_P2
2021/01/04 00:01:24;;;;;;;103.60;60.40;;;2.80;25.00;;;;;;4904816;28;20185;-73
2021/01/04 00:04:10;;;;;;;88.83;54.73;;;2.60;25.10;;;;;;4909364;28;20197;-73
2021/01/04 00:07:07;;;;;;;82.93;53.10;;;2.60;25.60;;;;;;4908093;28;20229;-73
2021/01/04 00:09:52;;;;;;;82.47;50.20;;;2.40;27.20;;;;;;4902220;28;20193;-73
2021/01/04 00:12:21;;;;;;;108.40;59.47;;;2.30;30.10;;;;;;4887396;28;20251;-73
2021/01/04 00:14:59;;;;;;;96.93;57.50;;;2.20;34.30;;;;;;4908654;28;20184;-72
2021/01/04 00:17:44;;;;;;;91.63;54.63;;;2.00;43.10;;;;;;4903912;28;20207;-73
2021/01/04 00:20:16;;;;;;;92.80;54.63;;;2.00;52.30;;;;;;4889544;28;20208;-73
2021/01/04 00:22:46;;;;;;;82.27;50.10;;;1.90;59.40;;;;;;4903492;28;20196;-73
2021/01/04 00:25:18;;;;;;;93.83;54.23;;;1.90;64.70;;;;;;4908364;28;20199;-72
2021/01/04 00:27:47;;;;;;;93.17;52.80;;;1.80;69.60;;;;;;4899007;28;20910;-73
2021/01/04 00:30:19;;;;;;;93.43;53.00;;;1.60;72.50;;;;;;4903245;28;20188;-72
2021/01/04 00:32:42;;;;;;;103.73;57.20;;;1.50;75.00;;;;;;4904670;28;20223;-74
2021/01/04 00:35:10;;;;;;;107.03;60.70;;;1.50;79.40;;;;;;4899804;28;20189;-72
2021/01/04 00:37:59;;;;;;;90.50;55.27;;;1.50;87.00;;;;;;4910306;28;20219;-72
2021/01/04 00:40:33;;;;;;;94.63;57.30;;;1.50;92.40;;;;;;4905316;28;20878;-73
2021/01/04 00:42:56;;;;;;;81.07;49.23;;;1.50;97.20;;;;;;4912491;28;20203;-73
2021/01/04 00:45:23;;;;;;;68.97;41.87;;;1.60;99.90;;;;;;4904264;28;20242;-72
2021/01/04 00:47:56;;;;;;;60.97;39.20;;;1.70;99.90;;;;;;4899957;28;20747;-75
2021/01/04 00:50:27;;;;;;;55.70;38.37;;;1.70;99.90;;;;;;4906798;28;20181;-72
2021/01/04 00:52:57;;;;;;;57.20;38.50;;;1.90;99.90;;;;;;4907512;28;20281;-72
2021/01/04 00:55:41;;;;;;;68.57;43.27;;;1.90;99.90;;;;;;4905051;28;20525;-72
2021/01/04 00:58:33;;;;;;;65.57;44.40;;;1.90;99.90;;;;;;4865642;28;20622;-73
2021/01/04 01:01:07;;;;;;;70.67;48.90;;;1.90;99.90;;;;;;4910778;28;20221;-73
2021/01/04 01:03:52;;;;;;;77.77;52.93;;;1.90;99.90;;;;;;4906667;28;20700;-73
2021/01/04 01:06:24;;;;;;;65.27;45.57;;;2.00;99.90;;;;;;4905510;28;20192;-72
2021/01/04 01:08:50;;;;;;;65.63;44.07;;;1.90;99.90;;;;;;4902559;28;20819;-73
2021/01/04 01:11:17;;;;;;;67.00;44.87;;;2.00;99.90;;;;;;4906892;28;20241;-72
2021/01/04 01:13:57;;;;;;;57.63;40.27;;;2.00;99.90;;;;;;4901253;28;20223;-72
2021/01/04 01:16:38;;;;;;;62.37;41.73;;;2.00;99.90;;;;;;4887923;28;20219;-72
2021/01/04 01:19:13;;;;;;;65.43;42.73;;;2.10;99.90;;;;;;4885503;28;20199;-72
2021/01/04 01:21:36;;;;;;;68.10;45.30;;;2.00;99.90;;;;;;4903584;28;20192;-72
2021/01/04 01:24:00;;;;;;;57.97;40.13;;;2.10;99.90;;;;;;4911561;28;20187;-73
2021/01/04 01:27:04;;;;;;;63.53;41.87;;;2.10;99.90;;;;;;4889687;28;20571;-72
2021/01/04 01:29:58;;;;;;;63.53;42.80;;;2.10;99.90;;;;;;4865342;28;20301;-74
2021/01/04 01:32:47;;;;;;;64.17;42.40;;;2.10;99.90;;;;;;4903920;28;20249;-72
2021/01/04 01:35:30;;;;;;;77.60;49.10;;;2.10;99.90;;;;;;4903375;28;20173;-73
2021/01/04 01:38:14;;;;;;;72.33;47.37;;;2.10;99.90;;;;;;4899834;28;20305;-73
2021/01/04 01:41:13;;;;;;;77.07;50.73;;;2.10;99.90;;;;;;4902729;28;20599;-73
2021/01/04 01:43:53;;;;;;;72.27;48.30;;;2.10;99.90;;;;;;4904921;28;20224;-73
2021/01/04 01:46:21;;;;;;;68.70;46.03;;;2.10;99.90;;;;;;4902657;28;20238;-72
2021/01/04 01:49:00;;;;;;;73.30;48.73;;;2.10;99.90;;;;;;4904254;28;20711;-73
2021/01/04 01:51:41;;;;;;;68.53;46.37;;;2.10;99.90;;;;;;4907798;28;20200;-74
2021/01/04 01:54:14;;;;;;;63.07;42.90;;;2.10;99.90;;;;;;4907239;28;20223;-72
2021/01/04 01:56:49;;;;;;;57.23;39.87;;;2.10;99.90;;;;;;4904202;28;20177;-72
2021/01/04 01:59:49;;;;;;;60.23;42.10;;;2.10;99.90;;;;;;4908870;28;20214;-73
2021/01/04 02:02:20;;;;;;;64.43;42.60;;;2.10;99.90;;;;;;4909017;28;20690;-75
2021/01/04 02:04:51;;;;;;;65.33;43.73;;;2.10;99.90;;;;;;4908574;28;20181;-73
2021/01/04 02:07:21;;;;;;;62.63;43.20;;;2.10;99.90;;;;;;4905202;28;20639;-73
2021/01/04 02:09:47;;;;;;;68.37;46.00;;;2.10;99.90;;;;;;4908824;28;20193;-73
2021/01/04 02:12:16;;;;;;;61.43;42.07;;;2.10;99.90;;;;;;4903825;28;20242;-72
2021/01/04 02:14:54;;;;;;;65.27;44.20;;;2.10;99.90;;;;;;4869694;28;20662;-74
2021/01/04 02:17:43;;;;;;;69.70;46.30;;;2.20;99.90;;;;;;4905135;28;20177;-72
2021/01/04 02:20:44;;;;;;;63.97;45.13;;;2.20;99.90;;;;;;4899815;28;20188;-74
2021/01/04 02:23:28;;;;;;;68.37;46.20;;;2.50;99.90;;;;;;4897547;28;20203;-73
2021/01/04 02:25:55;;;;;;;69.20;46.77;;;2.20;99.90;;;;;;4898996;28;20185;-72
2021/01/04 02:28:34;;;;;;;68.73;46.20;;;2.20;99.90;;;;;;4904691;28;20204;-72
2021/01/04 02:30:57;;;;;;;72.33;45.73;;;2.10;99.90;;;;;;4907353;28;20631;-72
2021/01/04 02:33:20;;;;;;;67.83;46.37;;;2.10;99.90;;;;;;4907766;28;20276;-72
2021/01/04 02:35:43;;;;;;;67.47;45.70;;;2.20;99.90;;;;;;4904619;28;20185;-73
2021/01/04 02:38:05;;;;;;;67.73;46.43;;;2.20;99.90;;;;;;4910173;28;20241;-72
2021/01/04 02:40:28;;;;;;;64.50;43.67;;;2.10;99.90;;;;;;4915728;28;20204;-72
2021/01/04 02:42:51;;;;;;;64.93;44.57;;;2.10;99.90;;;;;;4890179;28;20607;-73
2021/01/04 02:45:18;;;;;;;71.33;47.37;;;2.10;99.90;;;;;;4904642;28;20180;-74
2021/01/04 02:48:10;;;;;;;73.03;46.90;;;2.10;99.90;;;;;;4886085;28;20647;-74
2021/01/04 02:50:42;;;;;;;74.30;47.57;;;2.10;99.90;;;;;;4905791;28;20196;-72
2021/01/04 02:53:34;;;;;;;67.93;45.60;;;2.00;99.90;;;;;;4905978;28;20574;-72
2021/01/04 02:56:08;;;;;;;71.83;46.93;;;2.10;99.90;;;;;;4910324;28;20184;-74
2021/01/04 02:58:43;;;;;;;72.33;47.50;;;2.10;99.90;;;;;;4901174;28;20629;-73
2021/01/04 03:01:11;;;;;;;60.30;41.50;;;2.10;99.90;;;;;;4901023;28;20677;-73
2021/01/04 03:03:37;;;;;;;54.70;39.60;;;2.10;99.90;;;;;;4907468;28;20565;-72
2021/01/04 03:06:02;;;;;;;55.47;39.63;;;2.10;99.90;;;;;;4902062;28;20258;-73
2021/01/04 03:08:24;;;;;;;44.40;32.63;;;2.10;99.90;;;;;;4907968;28;20237;-73
2021/01/04 03:10:49;;;;;;;43.30;32.03;;;2.10;99.90;;;;;;4901036;28;20181;-73
2021/01/04 03:13:20;;;;;;;42.30;30.77;;;2.30;99.90;;;;;;4903348;28;20263;-77
2021/01/04 03:16:01;;;;;;;45.80;33.30;;;2.20;99.90;;;;;;4906535;28;20187;-72
2021/01/04 03:18:28;;;;;;;50.40;36.13;;;2.20;99.90;;;;;;4905979;28;20223;-73
2021/01/04 03:20:51;;;;;;;54.60;38.70;;;2.30;99.90;;;;;;4909571;28;20265;-72
2021/01/04 03:23:13;;;;;;;56.87;40.10;;;2.20;99.90;;;;;;4904750;28;20192;-72
2021/01/04 03:25:40;;;;;;;47.90;36.07;;;2.20;99.90;;;;;;4888141;28;20197;-72
2021/01/04 03:28:04;;;;;;;57.03;38.57;;;2.20;99.90;;;;;;4903825;28;20184;-73
2021/01/04 03:30:28;;;;;;;47.33;34.50;;;2.30;99.90;;;;;;4903083;28;20225;-72
2021/01/04 03:32:51;;;;;;;50.87;36.00;;;2.20;99.90;;;;;;4933364;28;20215;-74
2021/01/04 03:35:13;;;;;;;48.30;35.00;;;2.20;99.90;;;;;;4907248;28;20203;-73
2021/01/04 03:37:36;;;;;;;52.47;35.87;;;2.10;99.90;;;;;;4910377;28;20605;-72
2021/01/04 03:39:58;;;;;;;48.57;34.70;;;2.10;99.90;;;;;;4910183;28;20570;-73
2021/01/04 03:42:20;;;;;;;48.90;35.90;;;2.00;99.90;;;;;;4905387;28;20230;-72
2021/01/04 03:44:42;;;;;;;50.47;35.70;;;1.90;99.90;;;;;;4917011;28;20700;-73
2021/01/04 03:47:04;;;;;;;47.60;34.37;;;1.90;99.90;;;;;;4909439;28;20226;-72
2021/01/04 03:49:27;;;;;;;50.53;35.03;;;1.80;99.90;;;;;;4904927;28;20234;-72
2021/01/04 03:51:51;;;;;;;51.23;35.70;;;1.70;99.90;;;;;;4906444;28;20189;-72
2021/01/04 03:54:13;;;;;;;46.23;34.70;;;1.70;99.90;;;;;;4907962;28;20216;-73
2021/01/04 03:56:35;;;;;;;47.50;34.73;;;1.70;99.90;;;;;;4908007;28;20758;-72
2021/01/04 03:58:57;;;;;;;46.97;32.80;;;1.70;99.90;;;;;;4909856;28;20188;-72
2021/01/04 04:01:19;;;;;;;41.10;28.90;;;1.70;99.90;;;;;;4904388;28;20245;-71
2021/01/04 04:03:41;;;;;;;36.50;27.00;;;1.70;99.90;;;;;;4906764;28;20180;-72
2021/01/04 04:06:04;;;;;;;37.80;26.43;;;1.70;99.90;;;;;;4906943;28;20196;-71
2021/01/04 04:08:27;;;;;;;38.30;26.87;;;1.80;99.90;;;;;;4906487;28;20184;-71
2021/01/04 04:10:49;;;;;;;32.97;23.53;;;1.80;99.90;;;;;;4905311;28;20193;-73
2021/01/04 04:13:11;;;;;;;36.80;23.73;;;1.90;99.90;;;;;;4905118;28;20220;-77
2021/01/04 04:15:33;;;;;;;33.73;23.83;;;1.90;99.90;;;;;;4909404;28;20184;-72
2021/01/04 04:17:55;;;;;;;33.97;23.97;;;1.90;99.90;;;;;;4909222;28;20210;-72
2021/01/04 04:20:21;;;;;;;32.17;22.37;;;2.10;99.90;;;;;;4907091;28;20638;-73
2021/01/04 04:22:46;;;;;;;36.07;23.90;;;2.00;99.90;;;;;;4905158;28;20204;-72
2021/01/04 04:25:09;;;;;;;37.20;24.33;;;1.90;99.90;;;;;;4907451;28;20211;-72
2021/01/04 04:27:32;;;;;;;45.43;27.93;;;2.10;99.90;;;;;;4913789;28;20247;-73
2021/01/04 04:29:54;;;;;;;45.67;29.30;;;2.10;99.90;;;;;;4910759;28;20219;-73
2021/01/04 04:32:18;;;;;;;46.63;29.47;;;2.10;99.90;;;;;;4912248;28;20193;-74
2021/01/04 04:34:40;;;;;;;37.30;25.83;;;2.10;99.90;;;;;;4932204;28;20212;-73
2021/01/04 04:37:03;;;;;;;35.43;24.50;;;2.20;99.90;;;;;;4908857;28;20183;-72
2021/01/04 04:39:26;;;;;;;33.07;23.57;;;2.30;99.90;;;;;;4906722;28;20750;-72
2021/01/04 04:41:51;;;;;;;32.33;22.67;;;2.40;99.90;;;;;;4903084;28;20189;-72
2021/01/04 04:44:24;;;;;;;37.43;24.83;;;2.40;99.90;;;;;;4890107;28;20240;-73
2021/01/04 04:47:08;;;;;;;35.27;25.23;;;2.40;99.90;;;;;;4912256;28;20184;-73
2021/01/04 04:50:24;;;;;;;34.43;23.77;;;2.50;99.90;;;;;;4908496;28;20184;-72
2021/01/04 04:53:07;;;;;;;36.93;25.47;;;2.70;99.90;;;;;;4853805;28;20216;-73
2021/01/04 04:55:56;;;;;;;36.00;26.77;;;2.60;99.90;;;;;;4905551;28;20243;-73
2021/01/04 04:58:34;;;;;;;34.50;26.00;;;2.70;99.90;;;;;;4909758;28;20219;-74
2021/01/04 05:01:11;;;;;;;30.50;23.10;;;2.80;99.90;;;;;;4905253;28;20196;-72
2021/01/04 05:03:50;;;;;;;33.33;23.43;;;2.70;99.90;;;;;;4909346;28;20608;-72
2021/01/04 05:06:40;;;;;;;33.50;22.97;;;2.80;99.90;;;;;;4904799;28;20196;-73
2021/01/04 05:09:40;;;;;;;33.93;23.60;;;2.70;99.90;;;;;;4905200;28;20200;-72
2021/01/04 05:12:10;;;;;;;34.73;23.73;;;2.70;99.90;;;;;;4898802;28;20204;-72
2021/01/04 05:14:36;;;;;;;31.63;21.20;;;2.70;99.90;;;;;;4905374;28;20269;-72
2021/01/04 05:17:09;;;;;;;31.70;22.33;;;2.70;99.90;;;;;;4910432;28;20184;-74
2021/01/04 05:20:12;;;;;;;32.07;23.20;;;2.60;99.90;;;;;;4908494;28;20242;-73
2021/01/04 05:23:05;;;;;;;31.83;22.80;;;2.60;99.90;;;;;;4908237;28;20375;-73
2021/01/04 05:25:58;;;;;;;31.57;22.80;;;2.60;99.90;;;;;;4911391;28;20224;-72
2021/01/04 05:28:44;;;;;;;31.50;21.90;;;2.70;99.90;;;;;;4901978;28;20260;-72
2021/01/04 05:31:31;;;;;;;28.80;21.83;;;2.70;99.90;;;;;;4899766;28;20173;-74
2021/01/04 05:34:07;;;;;;;29.53;21.03;;;2.70;99.90;;;;;;4905255;28;20659;-76
2021/01/04 05:36:59;;;;;;;26.80;19.17;;;2.60;99.90;;;;;;4906916;28;20292;-73
2021/01/04 05:39:32;;;;;;;28.93;20.47;;;2.50;99.90;;;;;;4906241;28;20217;-73
2021/01/04 05:42:24;;;;;;;26.23;19.13;;;2.40;99.00;;;;;;4931821;28;20187;-73
2021/01/04 05:45:04;;;;;;;29.80;20.87;;;2.40;97.50;;;;;;4885768;28;20298;-74
2021/01/04 05:47:34;;;;;;;24.93;18.87;;;2.20;96.00;;;;;;4903186;28;20168;-73
2021/01/04 05:50:05;;;;;;;27.33;19.90;;;2.10;96.10;;;;;;4907309;28;20185;-72
2021/01/04 05:52:28;;;;;;;27.47;19.67;;;2.00;96.20;;;;;;4898096;28;20650;-74
2021/01/04 05:54:50;;;;;;;29.10;20.33;;;1.90;97.30;;;;;;4898763;28;20208;-72
2021/01/04 05:57:17;;;;;;;30.50;21.43;;;1.90;97.60;;;;;;4905286;28;20242;-72
2021/01/04 05:59:50;;;;;;;34.17;24.73;;;1.80;97.90;;;;;;4903922;28;20215;-74
2021/01/04 06:02:22;;;;;;;29.13;21.13;;;1.70;98.10;;;;;;4910702;28;20246;-75
2021/01/04 06:04:44;;;;;;;42.73;28.03;;;1.70;98.70;;;;;;4899920;28;20670;-75
2021/01/04 06:07:07;;;;;;;36.50;25.47;;;1.60;99.20;;;;;;4902616;28;20201;-73
2021/01/04 06:09:31;;;;;;;39.90;26.93;;;1.50;99.90;;;;;;4905500;28;20648;-72
2021/01/04 06:11:55;;;;;;;77.40;39.73;;;1.50;99.90;;;;;;4903463;28;20222;-75
2021/01/04 06:14:18;;;;;;;70.97;39.77;;;1.50;99.90;;;;;;4894877;28;20607;-72
2021/01/04 06:16:43;;;;;;;63.67;35.97;;;1.40;99.90;;;;;;4907255;28;20214;-75
2021/01/04 06:19:11;;;;;;;49.10;29.30;;;1.30;99.90;;;;;;4929532;28;20660;-72
2021/01/04 06:21:46;;;;;;;55.47;31.17;;;1.30;99.90;;;;;;4903508;28;20581;-74
2021/01/04 06:24:11;;;;;;;60.20;34.17;;;1.20;99.90;;;;;;4906390;28;20179;-73
2021/01/04 06:26:33;;;;;;;62.20;36.10;;;1.10;99.90;;;;;;4896693;28;20184;-72
2021/01/04 06:28:59;;;;;;;61.23;35.20;;;1.00;99.90;;;;;;4897965;28;20200;-78
2021/01/04 06:31:35;;;;;;;57.80;32.83;;;1.00;99.90;;;;;;4905368;28;20590;-73
2021/01/04 06:34:00;;;;;;;46.43;31.67;;;1.10;99.90;;;;;;4903578;28;20220;-74
2021/01/04 06:36:23;;;;;;;52.93;31.77;;;0.90;99.90;;;;;;4909504;28;20209;-72
2021/01/04 06:38:46;;;;;;;51.63;30.83;;;0.90;99.90;;;;;;4892001;28;20196;-75
2021/01/04 06:41:15;;;;;;;52.60;30.97;;;0.70;99.90;;;;;;4905968;28;20237;-73
2021/01/04 06:43:38;;;;;;;51.20;31.73;;;0.70;99.90;;;;;;4904821;28;20621;-73
2021/01/04 06:46:26;;;;;;;48.27;29.67;;;0.80;99.90;;;;;;4898141;28;20203;-74
2021/01/04 06:48:54;;;;;;;49.77;30.67;;;0.60;99.90;;;;;;4908381;28;20208;-72
2021/01/04 06:51:48;;;;;;;49.87;30.63;;;0.50;99.90;;;;;;4900512;28;20740;-73
2021/01/04 06:54:36;;;;;;;51.50;32.53;;;0.40;99.90;;;;;;4907211;28;20246;-77
2021/01/04 06:57:35;;;;;;;55.07;33.07;;;0.40;99.90;;;;;;4910397;28;21230;-76
2021/01/04 07:00:25;;;;;;;50.93;30.73;;;0.40;99.90;;;;;;4897511;28;20645;-73
2021/01/04 07:03:20;;;;;;;53.90;32.30;;;0.40;99.90;;;;;;4901457;28;21231;-74
2021/01/04 07:06:07;;;;;;;59.13;37.30;;;0.30;99.90;;;;;;4894667;28;20211;-72
2021/01/04 07:08:46;;;;;;;71.70;41.17;;;0.30;99.90;;;;;;4895917;28;20602;-73
2021/01/04 07:11:25;;;;;;;75.10;43.27;;;0.40;99.90;;;;;;4890214;28;20196;-73
2021/01/04 07:14:00;;;;;;;68.77;41.03;;;0.50;99.90;;;;;;4915348;28;20612;-73
2021/01/04 07:16:55;;;;;;;86.10;46.97;;;0.70;99.90;;;;;;4914223;28;20689;-72
2021/01/04 07:19:34;;;;;;;94.27;53.20;;;0.70;99.90;;;;;;4915030;28;20172;-72
2021/01/04 07:22:00;;;;;;;143.43;77.63;;;1.00;99.90;;;;;;4914759;28;20627;-74
2021/01/04 07:24:57;;;;;;;124.17;66.90;;;1.00;99.90;;;;;;4915119;28;20180;-73
2021/01/04 07:27:46;;;;;;;106.33;57.07;;;1.20;99.90;;;;;;4901744;28;20200;-72
2021/01/04 07:30:19;;;;;;;74.23;46.43;;;1.30;99.90;;;;;;4902632;28;20176;-74
2021/01/04 07:32:53;;;;;;;85.13;51.20;;;1.50;99.90;;;;;;4899873;28;20589;-73
2021/01/04 07:35:20;;;;;;;99.97;59.13;;;1.60;99.90;;;;;;4898731;28;20211;-73
2021/01/04 07:37:56;;;;;;;93.30;53.20;;;1.70;99.90;;;;;;4907401;28;20633;-73
2021/01/04 07:40:36;;;;;;;92.53;55.63;;;1.80;99.90;;;;;;4907029;28;20258;-73
2021/01/04 07:43:37;;;;;;;91.63;53.50;;;1.90;99.90;;;;;;4904857;28;20581;-73
2021/01/04 07:46:21;;;;;;;79.43;52.83;;;1.90;99.90;;;;;;4907462;28;20242;-74
2021/01/04 07:49:32;;;;;;;71.27;46.30;;;2.00;99.90;;;;;;4897691;28;20226;-74
2021/01/04 07:52:12;;;;;;;73.17;49.77;;;2.10;99.90;;;;;;4892910;28;20482;-75
2021/01/04 07:55:10;;;;;;;79.63;50.67;;;2.20;99.90;;;;;;4903070;28;20201;-73
2021/01/04 07:58:23;;;;;;;72.27;48.93;;;2.30;99.90;;;;;;4905603;28;20188;-73
2021/01/04 08:01:05;;;;;;;71.17;48.50;;;2.30;99.90;;;;;;4897721;28;20329;-74
2021/01/04 08:03:58;;;;;;;72.07;49.67;;;2.40;99.90;;;;;;4893702;28;20196;-73
2021/01/04 08:06:53;;;;;;;70.63;45.17;;;2.50;99.90;;;;;;4895930;28;20200;-72
2021/01/04 08:09:32;;;;;;;62.80;43.23;;;2.70;99.90;;;;;;4908007;28;20214;-72
2021/01/04 08:12:17;;;;;;;59.87;42.37;;;2.90;99.90;;;;;;4910737;28;20221;-73
2021/01/04 08:15:24;;;;;;;59.17;39.17;;;3.10;99.90;;;;;;4908712;28;20818;-74
2021/01/04 08:17:51;;;;;;;60.13;41.40;;;3.10;99.90;;;;;;4893296;28;20208;-74
2021/01/04 08:20:14;;;;;;;52.93;38.03;;;3.10;99.90;;;;;;4905580;28;20188;-76
2021/01/04 08:23:07;;;;;;;52.40;36.47;;;3.10;99.90;;;;;;4908392;28;20179;-73
2021/01/04 08:25:40;;;;;;;51.17;36.33;;;3.00;99.90;;;;;;4901015;28;20196;-76
2021/01/04 08:28:17;;;;;;;51.97;37.00;;;3.10;99.90;;;;;;4905270;28;20634;-75
2021/01/04 08:30:43;;;;;;;47.83;33.87;;;3.00;98.70;;;;;;4893123;28;20254;-73
2021/01/04 08:33:12;;;;;;;52.57;37.40;;;3.10;99.20;;;;;;4903064;28;20677;-72
2021/01/04 08:35:39;;;;;;;51.70;36.93;;;3.10;99.70;;;;;;4912571;28;20201;-74
2021/01/04 08:38:17;;;;;;;53.87;37.87;;;3.10;99.90;;;;;;4903179;28;20189;-73
2021/01/04 08:40:51;;;;;;;55.90;38.47;;;3.60;99.90;;;;;;4902442;28;20220;-73
2021/01/04 08:43:14;;;;;;;55.10;39.17;;;3.40;99.90;;;;;;4910940;28;20195;-73
2021/01/04 08:45:44;;;;;;;52.70;38.77;;;3.40;99.90;;;;;;4910464;28;20188;-73
2021/01/04 08:48:17;;;;;;;57.90;39.33;;;3.60;99.90;;;;;;4897447;28;20177;-73
2021/01/04 08:50:45;;;;;;;55.63;37.93;;;3.90;99.90;;;;;;4897294;28;20248;-74
2021/01/04 08:53:17;;;;;;;52.47;36.67;;;4.20;99.90;;;;;;4895627;28;20282;-73
2021/01/04 08:55:40;;;;;;;51.10;35.87;;;4.50;99.90;;;;;;4899311;28;20730;-73
2021/01/04 08:58:17;;;;;;;45.40;34.00;;;4.90;98.00;;;;;;4916263;28;20176;-73
2021/01/04 09:00:39;;;;;;;42.27;30.57;;;5.20;92.70;;;;;;4912288;28;20269;-72
2021/01/04 09:03:01;;;;;;;38.43;28.60;;;5.40;82.40;;;;;;4879636;28;20197;-73
2021/01/04 09:05:34;;;;;;;38.27;27.63;;;5.70;67.10;;;;;;4900122;28;20700;-74
2021/01/04 09:07:58;;;;;;;41.90;29.23;;;5.90;39.20;;;;;;4911111;28;20207;-72
2021/01/04 09:10:24;;;;;;;44.83;31.30;;;6.00;17.60;;;;;;4900517;28;20555;-73
2021/01/04 09:12:49;;;;;;;44.23;31.53;;;6.00;16.00;;;;;;4914233;28;20249;-72
2021/01/04 09:15:25;;;;;;;39.97;30.43;;;6.00;13.70;;;;;;4905069;28;20242;-73
2021/01/04 09:17:51;;;;;;;38.93;29.50;;;6.00;10.20;;;;;;4904068;28;20184;-73
2021/01/04 09:20:40;;;;;;;38.87;27.60;;;6.10;7.50;;;;;;4903857;28;20719;-73
2021/01/04 09:23:08;;;;;;;41.63;30.03;;;6.50;10.90;;;;;;4908138;28;20180;-73
2021/01/04 09:25:45;;;;;;;43.93;34.67;;;6.60;11.60;;;;;;4903404;28;20180;-73
2021/01/04 09:28:08;;;;;;;53.43;42.70;;;7.10;9.00;;;;;;4911003;28;20196;-74
2021/01/04 09:30:30;;;;;;;47.70;37.70;;;7.40;1.00;;;;;;4888709;28;20193;-78
2021/01/04 09:33:02;;;;;;;37.87;30.00;;;7.70;1.00;;;;;;4930455;28;20183;-73
2021/01/04 09:35:27;;;;;;;24.13;20.47;;;7.90;1.00;;;;;;4904141;28;20204;-72
2021/01/04 09:38:00;;;;;;;21.80;19.23;;;8.20;1.00;;;;;;4886994;28;20551;-73
2021/01/04 09:40:22;;;;;;;17.60;14.53;;;8.90;1.00;;;;;;4904212;28;20213;-75
2021/01/04 09:42:45;;;;;;;11.67;10.43;;;10.30;1.00;;;;;;4902171;28;20184;-73
2021/01/04 09:45:12;;;;;;;10.67;9.57;;;13.80;99.90;;;;;;4886548;28;20196;-74
2021/01/04 09:47:40;;;;;;;9.60;8.60;;;13.90;43.60;;;;;;4902744;28;20226;-74
2021/01/04 09:50:11;;;;;;;6.83;6.20;;;14.90;1.00;;;;;;4907549;28;20208;-77
2021/01/04 09:52:40;;;;;;;5.93;5.40;;;16.10;1.00;;;;;;4884739;28;20217;-72
2021/01/04 09:55:08;;;;;;;8.90;8.13;;;16.30;1.00;;;;;;4905140;28;20224;-73
2021/01/04 09:57:32;;;;;;;8.53;7.83;;;15.90;1.00;;;;;;4905863;28;20180;-73
2021/01/04 09:59:54;;;;;;;6.13;5.63;;;15.70;1.00;;;;;;4911193;28;20542;-72
2021/01/04 10:02:21;;;;;;;3.57;3.27;;;16.10;1.00;;;;;;4898474;28;20683;-73
2021/01/04 10:04:43;;;;;;;4.13;3.80;;;16.70;1.00;;;;;;4893044;28;20193;-74
2021/01/04 10:07:10;;;;;;;4.70;4.30;;;16.60;1.00;;;;;;4904580;28;20246;-73
2021/01/04 10:09:35;;;;;;;4.20;3.90;;;16.00;1.00;;;;;;4904956;28;20210;-74
2021/01/04 10:12:02;;;;;;;3.00;2.80;;;15.10;1.00;;;;;;4900213;28;20197;-73
2021/01/04 10:14:24;;;;;;;3.00;2.70;;;14.10;1.00;;;;;;4902665;28;20235;-72
2021/01/04 10:16:52;;;;;;;3.00;2.80;;;13.20;1.00;;;;;;4907804;28;20309;-74
2021/01/04 10:19:20;;;;;;;4.03;3.73;;;12.40;1.00;;;;;;4913222;28;20184;-75
2021/01/04 10:21:51;;;;;;;4.57;4.13;;;11.50;1.00;;;;;;4891098;28;20181;-77
2021/01/04 10:24:22;;;;;;;5.80;5.30;;;11.40;1.00;;;;;;4909829;28;20221;-72
2021/01/04 10:26:47;;;;;;;7.83;7.20;;;11.10;1.00;;;;;;4882659;28;20239;-73
2021/01/04 10:29:14;;;;;;;7.67;7.00;;;10.90;1.00;;;;;;4904414;28;20557;-74
2021/01/04 10:31:36;;;;;;;8.00;7.00;;;10.70;1.00;;;;;;4901558;28;20234;-73
2021/01/04 10:34:07;;;;;;;7.87;7.07;;;10.60;1.00;;;;;;4901076;28;20241;-73
2021/01/04 10:36:30;;;;;;;7.77;7.07;;;10.50;1.00;;;;;;4905107;28;20184;-74
2021/01/04 10:38:59;;;;;;;7.57;6.90;;;10.50;1.00;;;;;;4905538;28;20203;-82
2021/01/04 10:41:27;;;;;;;5.33;4.87;;;10.60;1.00;;;;;;4901539;28;20203;-74
2021/01/04 10:43:50;;;;;;;4.87;4.47;;;10.70;1.00;;;;;;4910187;28;20217;-74
2021/01/04 10:46:33;;;;;;;4.97;4.57;;;11.00;1.00;;;;;;4904223;28;20188;-80
2021/01/04 10:48:59;;;;;;;5.53;5.03;;;11.00;1.00;;;;;;4908377;28;20578;-75
2021/01/04 10:51:24;;;;;;;5.33;4.83;;;11.10;1.00;;;;;;4901769;28;20188;-82
2021/01/04 10:53:46;;;;;;;4.63;4.23;;;11.30;1.00;;;;;;4902305;28;20220;-78
2021/01/04 10:56:29;;;;;;;3.97;3.67;;;11.40;1.00;;;;;;4907931;28;20265;-73
2021/01/04 10:59:10;;;;;;;4.63;4.23;;;11.50;1.00;;;;;;4902405;28;20184;-73
2021/01/04 11:01:36;;;;;;;4.73;3.97;;;11.50;1.00;;;;;;4898721;28;20241;-73
2021/01/04 11:04:05;;;;;;;4.40;3.93;;;11.40;1.00;;;;;;4904927;28;20202;-81
2021/01/04 11:06:29;;;;;;;3.97;3.63;;;11.40;1.00;;;;;;4904312;28;20180;-79
2021/01/04 11:08:52;;;;;;;4.73;4.33;;;11.20;1.00;;;;;;4905278;28;20250;-83
2021/01/04 11:11:31;;;;;;;5.47;5.00;;;11.20;1.00;;;;;;4905511;28;20249;-81
2021/01/04 11:13:54;;;;;;;6.27;5.70;;;11.20;1.00;;;;;;4901391;28;20180;-82
2021/01/04 11:16:19;;;;;;;4.10;3.80;;;11.20;1.00;;;;;;4902420;28;20204;-74
2021/01/04 11:18:51;;;;;;;3.67;3.37;;;11.20;1.00;;;;;;4894909;28;20698;-82
2021/01/04 11:21:14;;;;;;;3.70;3.40;;;11.20;1.00;;;;;;4902344;28;20184;-80
2021/01/04 11:23:36;;;;;;;3.90;3.57;;;11.30;1.00;;;;;;4895619;28;20191;-82
2021/01/04 11:25:58;;;;;;;4.20;3.80;;;11.50;1.00;;;;;;4899188;28;20698;-85
2021/01/04 11:28:20;;;;;;;7.00;6.37;;;11.60;1.00;;;;;;4903322;28;20201;-72
2021/01/04 11:30:42;;;;;;;6.10;5.47;;;11.60;1.00;;;;;;4896327;28;20332;-75
2021/01/04 11:33:06;;;;;;;9.67;8.00;;;11.70;1.00;;;;;;4902488;28;20202;-81
2021/01/04 11:35:30;;;;;;;25.87;23.50;;;11.70;1.00;;;;;;4906518;28;20213;-73
2021/01/04 11:37:52;;;;;;;30.83;28.00;;;11.80;1.00;;;;;;4906435;28;20238;-83
2021/01/04 11:40:15;;;;;;;23.77;21.50;;;11.70;1.00;;;;;;4927789;28;20211;-79
2021/01/04 11:42:37;;;;;;;5.53;4.30;;;11.70;1.00;;;;;;4900207;28;20247;-74
2021/01/04 11:44:59;;;;;;;3.47;3.20;;;11.70;1.00;;;;;;4902555;28;20184;-82
2021/01/04 11:47:21;;;;;;;5.60;5.10;;;11.80;1.00;;;;;;4911084;28;20184;-80
2021/01/04 11:49:43;;;;;;;12.67;11.53;;;11.90;1.00;;;;;;4915795;28;20244;-79
2021/01/04 11:52:07;;;;;;;9.80;8.83;;;12.10;1.00;;;;;;4905602;28;20647;-73
2021/01/04 11:54:30;;;;;;;6.97;6.40;;;12.20;1.00;;;;;;4909885;28;20192;-73
2021/01/04 11:56:52;;;;;;;17.50;15.70;;;12.20;1.00;;;;;;4916175;28;20183;-73
2021/01/04 11:59:15;;;;;;;11.93;10.80;;;12.20;1.00;;;;;;4899810;28;20249;-79
2021/01/04 12:01:37;;;;;;;7.00;6.37;;;12.20;1.00;;;;;;4907078;28;20683;-82
2021/01/04 12:03:59;;;;;;;3.30;3.07;;;13.00;1.00;;;;;;4887970;28;21960;-82
2021/01/04 12:06:21;;;;;;;3.03;2.83;;;13.10;1.00;;;;;;4907078;28;20209;-76
2021/01/04 12:08:45;;;;;;;1.67;1.57;;;13.90;1.00;;;;;;4904529;28;20196;-80
2021/01/04 12:11:07;;;;;;;1.53;1.43;;;14.50;1.00;;;;;;4905974;28;20185;-73
2021/01/04 12:13:29;;;;;;;1.43;1.37;;;14.60;1.00;;;;;;4908446;28;20196;-73
2021/01/04 12:15:52;;;;;;;1.50;1.40;;;15.00;1.00;;;;;;4912561;28;20276;-73
2021/01/04 12:18:15;;;;;;;1.33;1.23;;;15.30;1.00;;;;;;4907226;28;20543;-73
2021/01/04 12:20:37;;;;;;;0.67;0.67;;;16.40;1.00;;;;;;4874209;28;20193;-73
2021/01/04 12:22:59;;;;;;;0.50;0.50;;;18.10;1.00;;;;;;4912943;28;20653;-73
2021/01/04 12:25:22;;;;;;;0.20;0.20;;;20.30;1.00;;;;;;4905033;28;20193;-74
2021/01/04 12:27:44;;;;;;;0.03;0.03;;;22.50;1.00;;;;;;4904826;28;20245;-72
2021/01/04 12:30:08;;;;;;;0.10;0.10;;;24.40;1.00;;;;;;4903006;28;20243;-76
2021/01/04 12:32:30;;;;;;;0.00;0.00;;;26.10;1.00;;;;;;4904725;28;20182;-77
2021/01/04 12:34:52;;;;;;;0.00;0.00;;;27.70;1.00;;;;;;4907508;28;20572;-78
2021/01/04 12:37:15;;;;;;;0.00;0.00;;;28.90;1.00;;;;;;4912210;28;20246;-79
2021/01/04 12:39:37;;;;;;;0.00;0.00;;;28.70;1.00;;;;;;4899341;28;20351;-80
2021/01/04 12:42:00;;;;;;;0.07;0.07;;;27.90;1.00;;;;;;4888534;28;20638;-81
2021/01/04 12:44:23;;;;;;;0.00;0.00;;;27.70;1.00;;;;;;4905991;28;20179;-73
2021/01/04 12:46:46;;;;;;;0.00;0.00;;;27.80;1.00;;;;;;4907725;28;20236;-74
2021/01/04 12:49:08;;;;;;;0.00;0.00;;;28.20;1.00;;;;;;4901150;28;20242;-72
2021/01/04 12:51:31;;;;;;;0.00;0.00;;;28.60;1.00;;;;;;4904799;28;20233;-73
2021/01/04 12:53:53;;;;;;;0.00;0.00;;;28.60;1.00;;;;;;4906914;28;20213;-74
2021/01/04 12:56:16;;;;;;;0.00;0.00;;;28.30;1.00;;;;;;4904996;28;20617;-73
2021/01/04 12:58:42;;;;;;;0.00;0.00;;;28.00;1.00;;;;;;4901536;28;20203;-72
2021/01/04 13:01:04;;;;;;;0.00;0.00;;;27.70;1.00;;;;;;4905119;28;20248;-77
2021/01/04 13:03:26;;;;;;;0.00;0.00;;;27.50;1.00;;;;;;4904639;28;20173;-73